createdAt,value
2018-12-14T00:02:01.749Z,62.20
2018-12-14T00:04:30.900Z,54.20
2018-12-14T00:07:00.050Z,50.70
2018-12-14T00:09:29.206Z,46.80
2018-12-14T00:11:58.372Z,40.87
2018-12-14T00:14:27.519Z,36.37
2018-12-14T00:16:56.688Z,29.80
2018-12-14T00:19:25.895Z,34.60
2018-12-14T00:21:55.048Z,34.70
2018-12-14T00:24:24.201Z,29.47
2018-12-14T00:26:53.362Z,30.30
2018-12-14T00:29:22.469Z,31.60
2018-12-14T00:31:51.578Z,30.17
2018-12-14T00:34:20.650Z,28.93
2018-12-14T00:36:49.857Z,36.77
2018-12-14T00:39:18.975Z,31.43
2018-12-14T00:41:51.889Z,31.80
2018-12-14T00:44:19.253Z,28.07
2018-12-14T00:46:48.372Z,36.90
2018-12-14T00:49:17.496Z,30.47
2018-12-14T00:51:46.640Z,34.00
2018-12-14T00:54:15.756Z,28.00
2018-12-14T00:56:44.886Z,28.37
2018-12-14T00:59:13.996Z,35.77
2018-12-14T01:01:43.157Z,41.10
2018-12-14T01:04:12.277Z,38.43
2018-12-14T01:06:41.445Z,35.13
2018-12-14T01:09:10.554Z,59.97
2018-12-14T01:11:39.699Z,31.60
2018-12-14T01:14:08.884Z,23.37
2018-12-14T01:16:38.023Z,24.00
2018-12-14T01:19:07.146Z,21.43
2018-12-14T01:21:36.556Z,27.13
2018-12-14T01:24:05.684Z,22.73
2018-12-14T01:26:34.819Z,30.90
2018-12-14T01:29:03.916Z,28.23
2018-12-14T01:31:33.024Z,34.67
2018-12-14T01:34:32.705Z,29.60
2018-12-14T01:37:01.812Z,38.40
2018-12-14T01:39:31.037Z,55.47
2018-12-14T01:42:04.773Z,47.30
2018-12-14T01:44:31.285Z,23.43
2018-12-14T01:47:00.409Z,25.47
2018-12-14T01:49:29.517Z,19.17
2018-12-14T01:51:58.643Z,21.10
2018-12-14T01:54:27.765Z,18.67
2018-12-14T01:56:56.913Z,20.27
2018-12-14T01:59:26.018Z,20.37
2018-12-14T02:01:55.139Z,22.37
2018-12-14T02:04:24.262Z,19.57
2018-12-14T02:06:53.380Z,20.10
2018-12-14T02:09:22.537Z,23.20
2018-12-14T02:11:51.672Z,27.53
2018-12-14T02:14:20.815Z,18.13
2018-12-14T02:16:49.961Z,21.70
2018-12-14T02:19:19.089Z,21.50
2018-12-14T02:21:48.225Z,25.53
2018-12-14T02:24:17.334Z,24.83
2018-12-14T02:26:46.458Z,25.53
2018-12-14T02:29:15.586Z,26.37
2018-12-14T02:31:44.700Z,37.07
2018-12-14T02:34:13.813Z,33.43
2018-12-14T02:36:42.977Z,33.00
2018-12-14T02:39:12.173Z,29.93
2018-12-14T02:41:41.280Z,29.20
2018-12-14T02:44:10.400Z,28.90
2018-12-14T02:46:39.509Z,30.90
2018-12-14T02:49:08.646Z,31.53
2018-12-14T02:51:38.013Z,29.10
2018-12-14T02:54:07.140Z,34.03
2018-12-14T02:56:36.268Z,33.73
2018-12-14T02:59:05.391Z,33.87
2018-12-14T03:01:34.525Z,29.20
2018-12-14T03:04:03.632Z,39.30
2018-12-14T03:06:39.116Z,34.47
2018-12-14T03:09:08.293Z,31.30
2018-12-14T03:11:37.410Z,29.63
2018-12-14T03:14:06.517Z,32.87
2018-12-14T03:16:35.661Z,39.60
2018-12-14T03:19:04.794Z,36.20
2018-12-14T03:21:33.932Z,30.77
2018-12-14T03:24:03.051Z,39.20
2018-12-14T03:26:32.194Z,33.23
2018-12-14T03:29:01.782Z,35.60
2018-12-14T03:31:30.918Z,32.17
2018-12-14T03:34:00.044Z,38.17
2018-12-14T03:36:29.170Z,31.33
2018-12-14T03:38:58.285Z,33.50
2018-12-14T03:41:27.772Z,36.80
2018-12-14T03:43:56.900Z,33.73
2018-12-14T03:46:26.030Z,38.17
2018-12-14T03:48:55.161Z,39.67
2018-12-14T03:51:29.080Z,36.77
2018-12-14T03:53:58.267Z,34.80
2018-12-14T03:56:27.394Z,50.67
2018-12-14T03:58:56.485Z,47.73
2018-12-14T04:01:25.614Z,45.07
2018-12-14T04:03:54.753Z,89.37
2018-12-14T04:06:23.874Z,74.30
2018-12-14T04:08:52.975Z,76.17
2018-12-14T04:11:22.094Z,76.23
2018-12-14T04:13:51.259Z,104.03
2018-12-14T04:16:20.389Z,122.93
2018-12-14T04:18:49.526Z,111.83
2018-12-14T04:21:18.639Z,106.90
2018-12-14T04:23:47.771Z,95.20
2018-12-14T04:26:16.876Z,106.90
2018-12-14T04:28:46.018Z,105.70
2018-12-14T04:31:15.186Z,107.03
2018-12-14T04:33:44.465Z,103.70
2018-12-14T04:36:13.564Z,91.27
2018-12-14T04:38:42.675Z,101.77
2018-12-14T04:41:11.889Z,102.33
2018-12-14T04:43:40.988Z,99.07
2018-12-14T04:46:10.128Z,127.20
2018-12-14T04:48:39.244Z,130.47
2018-12-14T04:51:09.242Z,135.70
2018-12-14T04:53:38.391Z,136.97
2018-12-14T04:56:07.493Z,157.33
2018-12-14T04:58:36.628Z,147.77
2018-12-14T05:01:05.782Z,130.27
2018-12-14T05:03:35.417Z,146.57
2018-12-14T05:06:04.529Z,152.90
2018-12-14T05:08:33.678Z,145.33
2018-12-14T05:11:02.789Z,160.43
2018-12-14T05:13:31.898Z,131.10
2018-12-14T05:16:01.010Z,136.83
2018-12-14T05:18:30.149Z,145.23
2018-12-14T05:20:59.264Z,117.30
2018-12-14T05:23:28.373Z,116.77
2018-12-14T05:25:57.488Z,125.30
2018-12-14T05:28:26.624Z,128.97
2018-12-14T05:30:55.765Z,119.60
2018-12-14T05:33:24.892Z,138.63
2018-12-14T05:35:54.024Z,117.57
2018-12-14T05:38:23.161Z,101.43
2018-12-14T05:40:52.273Z,111.23
2018-12-14T05:43:21.400Z,95.00
2018-12-14T05:45:50.541Z,134.43
2018-12-14T05:48:19.692Z,120.00
2018-12-14T05:50:48.801Z,114.97
2018-12-14T05:53:17.929Z,114.53
2018-12-14T05:55:47.034Z,118.03
2018-12-14T05:58:16.341Z,150.03
2018-12-14T06:00:45.590Z,123.97
2018-12-14T06:03:14.907Z,124.57
2018-12-14T06:05:44.065Z,120.13
2018-12-14T06:08:13.201Z,115.97
2018-12-14T06:10:42.322Z,108.07
2018-12-14T06:13:11.649Z,143.53
2018-12-14T06:15:41.024Z,149.67
2018-12-14T06:18:10.141Z,176.37
2018-12-14T06:20:39.230Z,148.30
2018-12-14T06:23:08.337Z,130.57
2018-12-14T06:25:37.480Z,120.53
2018-12-14T06:28:06.701Z,114.37
2018-12-14T06:30:35.777Z,122.00
2018-12-14T06:33:04.881Z,123.60
2018-12-14T06:35:33.980Z,123.50
2018-12-14T06:38:03.104Z,120.90
2018-12-14T06:40:32.196Z,122.63
2018-12-14T06:43:01.314Z,110.60
2018-12-14T06:45:30.444Z,121.77
2018-12-14T06:48:05.983Z,126.20
2018-12-14T06:50:35.156Z,182.47
2018-12-14T06:53:04.540Z,140.93
2018-12-14T06:55:33.639Z,125.13
2018-12-14T06:58:02.718Z,121.43
2018-12-14T07:00:31.820Z,120.23
2018-12-14T07:03:00.953Z,120.20
2018-12-14T07:05:30.029Z,122.23
2018-12-14T07:07:59.126Z,121.20
2018-12-14T07:10:28.223Z,136.37
2018-12-14T07:12:57.349Z,128.27
2018-12-14T07:15:26.442Z,126.73
2018-12-14T07:17:55.555Z,165.20
2018-12-14T07:20:24.633Z,157.57
2018-12-14T07:22:53.720Z,155.53
2018-12-14T07:25:22.812Z,133.33
2018-12-14T07:27:51.937Z,119.23
2018-12-14T07:30:21.021Z,119.37
2018-12-14T07:32:50.136Z,142.20
2018-12-14T07:35:19.252Z,166.47
2018-12-14T07:37:48.338Z,165.23
2018-12-14T07:40:17.456Z,184.83
2018-12-14T07:42:46.586Z,183.33
2018-12-14T07:45:15.758Z,188.73
2018-12-14T07:47:44.856Z,169.27
2018-12-14T07:50:13.957Z,149.73
2018-12-14T07:52:43.069Z,112.87
2018-12-14T07:55:12.168Z,102.53
2018-12-14T07:57:41.273Z,112.87
2018-12-14T08:00:10.508Z,67.67
2018-12-14T08:02:39.619Z,63.47
2018-12-14T08:05:08.911Z,61.70
2018-12-14T08:07:38.024Z,66.13
2018-12-14T08:10:07.321Z,74.17
2018-12-14T08:12:36.430Z,90.47
2018-12-14T08:15:11.112Z,93.30
2018-12-14T08:17:36.840Z,61.90
2018-12-14T08:20:06.043Z,63.33
2018-12-14T08:22:35.218Z,72.83
2018-12-14T08:25:04.538Z,64.33
2018-12-14T08:27:33.715Z,53.13
2018-12-14T08:30:02.835Z,67.37
2018-12-14T08:32:31.953Z,54.30
2018-12-14T08:35:01.093Z,54.90
2018-12-14T08:37:30.296Z,46.93
2018-12-14T08:39:59.423Z,43.10
2018-12-14T08:42:28.530Z,32.17
2018-12-14T08:44:57.705Z,37.23
2018-12-14T08:47:26.827Z,29.00
2018-12-14T08:49:55.971Z,23.83
2018-12-14T08:52:25.073Z,31.97
2018-12-14T08:54:54.181Z,38.17
2018-12-14T08:57:23.363Z,35.73
2018-12-14T08:59:52.461Z,29.43
2018-12-14T09:02:21.580Z,95.67
2018-12-14T09:04:50.710Z,31.07
2018-12-14T09:07:24.506Z,24.73
2018-12-14T09:09:51.670Z,28.43
2018-12-14T09:12:20.809Z,64.80
2018-12-14T09:14:49.949Z,56.70
2018-12-14T09:17:19.047Z,107.83
2018-12-14T09:19:49.030Z,128.27
2018-12-14T09:22:18.105Z,152.37
2018-12-14T09:24:47.209Z,122.33
2018-12-14T09:27:16.313Z,72.50
2018-12-14T09:29:45.446Z,97.20
2018-12-14T09:32:14.561Z,83.10
2018-12-14T09:34:43.847Z,88.57
2018-12-14T09:37:12.954Z,77.27
2018-12-14T09:39:42.063Z,58.90
2018-12-14T09:42:11.177Z,52.80
2018-12-14T09:44:40.312Z,52.17
2018-12-14T09:47:09.435Z,45.17
2018-12-14T09:49:38.548Z,33.53
2018-12-14T09:52:07.652Z,41.27
2018-12-14T09:54:36.774Z,29.23
2018-12-14T09:57:05.913Z,32.87
2018-12-14T09:59:35.028Z,33.47
2018-12-14T10:02:04.147Z,29.73
2018-12-14T10:04:34.267Z,30.30
2018-12-14T10:07:03.406Z,45.47
2018-12-14T10:09:32.533Z,30.37
2018-12-14T10:12:01.662Z,24.27
2018-12-14T10:14:30.790Z,21.70
2018-12-14T10:16:59.903Z,22.50
2018-12-14T10:19:28.981Z,23.42
2018-12-14T10:21:58.101Z,26.53
2018-12-14T10:24:27.297Z,17.53
2018-12-14T10:26:56.502Z,18.77
2018-12-14T10:29:25.576Z,20.20
2018-12-14T10:31:54.677Z,16.40
2018-12-14T10:34:23.797Z,17.90
2018-12-14T10:36:52.917Z,16.07
2018-12-14T10:39:22.069Z,19.47
2018-12-14T10:41:51.204Z,23.07
2018-12-14T10:44:20.323Z,14.93
2018-12-14T10:46:49.452Z,16.23
2018-12-14T10:49:18.565Z,21.60
2018-12-14T10:51:47.838Z,13.97
2018-12-14T10:54:17.222Z,19.00
2018-12-14T10:56:46.352Z,16.70
2018-12-14T10:59:15.476Z,12.50
2018-12-14T11:01:49.705Z,11.57
2018-12-14T11:04:18.832Z,13.00
2018-12-14T11:06:47.939Z,17.47
2018-12-14T11:09:17.052Z,20.00
2018-12-14T11:11:46.256Z,20.33
2018-12-14T11:14:15.358Z,15.10
2018-12-14T11:16:44.474Z,19.77
2018-12-14T11:19:13.625Z,20.17
2018-12-14T11:21:42.773Z,19.60
2018-12-14T11:24:11.885Z,24.37
2018-12-14T11:26:41.010Z,23.13
2018-12-14T11:29:10.124Z,23.90
2018-12-14T11:31:39.249Z,18.77
2018-12-14T11:34:08.337Z,20.77
2018-12-14T11:36:38.179Z,28.43
2018-12-14T11:39:07.741Z,23.47
2018-12-14T11:41:37.062Z,22.77
2018-12-14T11:44:06.128Z,24.47
2018-12-14T11:46:35.273Z,28.73
2018-12-14T11:49:04.385Z,63.67
2018-12-14T11:51:33.488Z,35.30
2018-12-14T11:54:02.577Z,25.73
2018-12-14T11:56:31.732Z,25.93
2018-12-14T11:59:00.857Z,24.43
2018-12-14T12:01:30.057Z,22.47
2018-12-14T12:03:59.116Z,29.70
2018-12-14T12:06:28.239Z,25.80
2018-12-14T12:08:57.349Z,23.63
2018-12-14T12:11:26.484Z,21.20
2018-12-14T12:13:55.576Z,18.53
2018-12-14T12:16:24.688Z,35.40
2018-12-14T12:18:53.862Z,22.40
2018-12-14T12:21:22.957Z,24.23
2018-12-14T12:23:55.232Z,21.33
2018-12-14T12:26:23.190Z,23.93
2018-12-14T12:28:52.307Z,23.33
2018-12-14T12:31:21.428Z,20.60
2018-12-14T12:33:50.573Z,21.33
2018-12-14T12:36:19.725Z,21.77
2018-12-14T12:38:48.873Z,22.83
2018-12-14T12:41:18.004Z,31.73
2018-12-14T12:43:47.133Z,35.00
2018-12-14T12:46:16.242Z,27.23
2018-12-14T12:48:45.608Z,21.13
2018-12-14T12:51:14.999Z,22.30
2018-12-14T12:53:44.089Z,21.33
2018-12-14T12:56:13.482Z,22.13
2018-12-14T12:58:42.622Z,24.17
2018-12-14T13:01:11.708Z,21.43
2018-12-14T13:03:40.805Z,17.17
2018-12-14T13:06:09.918Z,26.03
2018-12-14T13:08:39.588Z,19.17
2018-12-14T13:11:08.705Z,23.57
2018-12-14T13:13:37.801Z,20.55
2018-12-14T13:16:06.967Z,24.97
2018-12-14T13:18:36.112Z,41.23
2018-12-14T13:21:05.202Z,27.90
2018-12-14T13:23:34.349Z,29.23
2018-12-14T13:26:03.494Z,21.03
2018-12-14T13:28:32.857Z,18.97
2018-12-14T13:31:02.034Z,31.53
2018-12-14T13:33:31.278Z,25.30
2018-12-14T13:36:00.448Z,18.53
2018-12-14T13:38:29.529Z,16.93
2018-12-14T13:40:58.641Z,20.93
2018-12-14T13:43:27.817Z,22.57
2018-12-14T13:45:56.929Z,22.43
2018-12-14T13:48:26.043Z,22.90
2018-12-14T13:50:55.215Z,27.93
2018-12-14T13:53:24.333Z,20.37
2018-12-14T13:55:53.451Z,22.23
2018-12-14T13:58:22.539Z,21.47
2018-12-14T14:00:51.657Z,25.07
2018-12-14T14:03:20.765Z,27.30
2018-12-14T14:05:49.873Z,23.10
2018-12-14T14:08:19.084Z,22.93
2018-12-14T14:10:48.218Z,27.13
2018-12-14T14:13:17.351Z,29.33
2018-12-14T14:15:50.748Z,18.30
2018-12-14T14:18:17.631Z,35.07
2018-12-14T14:20:46.759Z,47.53
2018-12-14T14:23:15.888Z,66.17
2018-12-14T14:25:45.309Z,106.83
2018-12-14T14:28:14.397Z,66.40
2018-12-14T14:30:43.477Z,46.17
2018-12-14T14:33:12.572Z,57.73
2018-12-14T14:35:41.680Z,44.77
2018-12-14T14:38:10.778Z,40.63
2018-12-14T14:40:39.917Z,38.50
2018-12-14T14:43:09.021Z,45.90
2018-12-14T14:45:38.158Z,39.87
2018-12-14T14:48:07.345Z,48.13
2018-12-14T14:50:36.458Z,45.40
2018-12-14T14:53:05.579Z,41.00
2018-12-14T14:55:34.680Z,78.60
2018-12-14T14:58:03.798Z,56.90
2018-12-14T15:00:33.466Z,65.63
2018-12-14T15:03:02.916Z,51.57
2018-12-14T15:05:32.047Z,40.10
2018-12-14T15:08:02.202Z,39.17
2018-12-14T15:10:31.321Z,43.30
2018-12-14T15:13:00.448Z,36.97
2018-12-14T15:15:29.566Z,37.70
2018-12-14T15:17:58.695Z,36.90
2018-12-14T15:20:27.799Z,49.20
2018-12-14T15:22:56.926Z,72.17
2018-12-14T15:25:26.020Z,56.80
2018-12-14T15:27:55.118Z,89.00
2018-12-14T15:30:24.220Z,127.27
2018-12-14T15:32:53.332Z,82.87
2018-12-14T15:35:22.516Z,66.63
2018-12-14T15:37:51.706Z,65.07
2018-12-14T15:40:20.833Z,82.93
2018-12-14T15:42:49.977Z,62.00
2018-12-14T15:45:19.081Z,64.67
2018-12-14T15:47:48.203Z,74.67
2018-12-14T15:50:17.325Z,65.07
2018-12-14T15:52:46.451Z,67.57
2018-12-14T15:55:15.538Z,77.77
2018-12-14T15:57:44.653Z,91.00
2018-12-14T16:00:13.753Z,88.37
2018-12-14T16:02:42.846Z,77.67
2018-12-14T16:05:11.965Z,113.07
2018-12-14T16:07:41.079Z,103.63
2018-12-14T16:10:10.204Z,100.17
2018-12-14T16:12:39.333Z,93.03
2018-12-14T16:15:09.026Z,93.07
2018-12-14T16:17:38.175Z,101.03
2018-12-14T16:20:09.187Z,87.00
2018-12-14T16:22:38.306Z,79.10
2018-12-14T16:25:08.336Z,92.87
2018-12-14T16:27:37.988Z,86.27
2018-12-14T16:30:09.513Z,96.30
2018-12-14T16:32:38.628Z,85.30
2018-12-14T16:35:07.746Z,90.43
2018-12-14T16:37:36.915Z,90.30
2018-12-14T16:40:06.576Z,92.90
2018-12-14T16:42:35.804Z,82.23
2018-12-14T16:45:04.986Z,103.80
2018-12-14T16:47:34.126Z,81.70
2018-12-14T16:50:03.215Z,92.20
2018-12-14T16:52:32.354Z,102.03
2018-12-14T16:55:01.481Z,99.00
2018-12-14T16:57:30.584Z,94.70
2018-12-14T16:59:59.769Z,111.67
2018-12-14T17:02:28.881Z,96.90
2018-12-14T17:04:58.021Z,126.47
2018-12-14T17:07:27.165Z,128.77
2018-12-14T17:09:56.289Z,97.33
2018-12-14T17:12:25.509Z,112.47
2018-12-14T17:14:54.606Z,104.73
2018-12-14T17:17:23.876Z,106.30
2018-12-14T17:19:53.021Z,111.80
2018-12-14T17:22:22.148Z,118.33
2018-12-14T17:24:51.254Z,105.33
2018-12-14T17:27:20.652Z,122.97
2018-12-14T17:29:49.785Z,117.47
2018-12-14T17:32:18.928Z,113.67
2018-12-14T17:34:48.053Z,116.70
2018-12-14T17:37:17.180Z,118.83
2018-12-14T17:39:46.306Z,147.03
2018-12-14T17:42:15.439Z,120.57
2018-12-14T17:44:44.761Z,142.57
2018-12-14T17:47:13.913Z,127.70
2018-12-14T17:49:43.020Z,149.17
2018-12-14T17:52:12.164Z,140.30
2018-12-14T17:54:41.301Z,178.30
2018-12-14T17:57:10.429Z,182.40
2018-12-14T17:59:39.544Z,194.27
2018-12-14T18:02:08.724Z,175.13
2018-12-14T18:04:37.861Z,219.10
2018-12-14T18:07:07.015Z,250.37
2018-12-14T18:09:36.174Z,280.03
2018-12-14T18:12:05.347Z,266.03
2018-12-14T18:14:34.494Z,301.40
2018-12-14T18:17:03.618Z,264.00
2018-12-14T18:19:32.791Z,231.13
2018-12-14T18:22:01.931Z,221.40
2018-12-14T18:24:31.091Z,206.80
2018-12-14T18:27:00.225Z,201.37
2018-12-14T18:29:29.387Z,212.10
2018-12-14T18:32:12.831Z,221.10
2018-12-14T18:34:42.014Z,193.30
2018-12-14T18:37:11.259Z,196.37
2018-12-14T18:39:40.429Z,196.87
2018-12-14T18:42:09.596Z,199.60
2018-12-14T18:44:38.884Z,217.00
2018-12-14T18:47:08.155Z,220.03
2018-12-14T18:49:37.335Z,173.50
2018-12-14T18:52:06.484Z,183.80
2018-12-14T18:54:35.630Z,198.57
2018-12-14T18:57:04.777Z,210.67
2018-12-14T18:59:33.938Z,240.37
2018-12-14T19:02:03.049Z,217.43
2018-12-14T19:04:32.169Z,222.30
2018-12-14T19:07:01.569Z,226.00
2018-12-14T19:09:30.713Z,225.40
2018-12-14T19:11:59.822Z,179.93
2018-12-14T19:14:28.941Z,203.80
2018-12-14T19:16:58.103Z,172.80
2018-12-14T19:19:27.251Z,175.50
2018-12-14T19:21:56.374Z,187.40
2018-12-14T19:24:25.505Z,166.93
2018-12-14T19:26:54.627Z,173.30
2018-12-14T19:29:23.737Z,197.03
2018-12-14T19:31:52.867Z,173.13
2018-12-14T19:34:21.982Z,173.33
2018-12-14T19:36:51.107Z,175.30
2018-12-14T19:39:20.409Z,178.10
2018-12-14T19:41:49.561Z,155.00
2018-12-14T19:44:18.698Z,151.67
2018-12-14T19:46:47.833Z,132.90
2018-12-14T19:49:16.970Z,115.57
2018-12-14T19:51:46.082Z,120.60
2018-12-14T19:54:15.260Z,105.23
2018-12-14T19:56:44.573Z,98.67
2018-12-14T19:59:13.685Z,86.43
2018-12-14T20:01:42.880Z,91.03
2018-12-14T20:04:11.983Z,89.13
2018-12-14T20:06:41.134Z,90.63
2018-12-14T20:09:10.240Z,73.70
2018-12-14T20:11:39.350Z,91.03
2018-12-14T20:14:09.007Z,81.97
2018-12-14T20:16:38.339Z,87.10
2018-12-14T20:19:07.451Z,79.93
2018-12-14T20:21:36.566Z,88.47
2018-12-14T20:24:05.718Z,77.20
2018-12-14T20:26:34.837Z,89.23
2018-12-14T20:29:03.949Z,78.13
2018-12-14T20:31:33.049Z,82.03
2018-12-14T20:34:02.190Z,94.27
2018-12-14T20:36:31.295Z,81.50
2018-12-14T20:39:00.465Z,92.67
2018-12-14T20:41:29.609Z,120.60
2018-12-14T20:43:58.717Z,123.97
2018-12-14T20:46:27.849Z,102.63
2018-12-14T20:48:56.959Z,92.10
2018-12-14T20:51:26.046Z,82.70
2018-12-14T20:53:56.268Z,106.23
2018-12-14T20:56:25.357Z,125.63
2018-12-14T20:58:54.473Z,173.47
2018-12-14T21:01:23.572Z,115.73
2018-12-14T21:03:52.708Z,153.30
2018-12-14T21:06:21.820Z,180.00
2018-12-14T21:08:50.941Z,172.23
2018-12-14T21:11:20.058Z,101.40
2018-12-14T21:13:49.199Z,111.10
2018-12-14T21:16:18.341Z,121.17
2018-12-14T21:18:47.466Z,125.50
2018-12-14T21:21:16.573Z,147.63
2018-12-14T21:23:45.691Z,156.27
2018-12-14T21:26:14.786Z,154.13
2018-12-14T21:28:43.890Z,136.97
2018-12-14T21:31:12.985Z,123.70
2018-12-14T21:33:42.086Z,115.87
2018-12-14T21:36:11.201Z,131.70
2018-12-14T21:38:40.320Z,131.73
2018-12-14T21:41:09.426Z,127.53
2018-12-14T21:43:38.537Z,114.97
2018-12-14T21:46:07.661Z,108.53
2018-12-14T21:48:36.765Z,134.20
2018-12-14T21:51:05.852Z,131.47
2018-12-14T21:53:34.979Z,103.57
2018-12-14T21:56:04.087Z,101.27
2018-12-14T21:58:33.194Z,95.07
2018-12-14T22:01:02.310Z,97.73
2018-12-14T22:03:31.407Z,82.83
2018-12-14T22:06:00.549Z,94.77
2018-12-14T22:08:29.642Z,91.50
2018-12-14T22:10:58.754Z,133.83
2018-12-14T22:13:27.876Z,118.87
2018-12-14T22:15:57.014Z,104.90
2018-12-14T22:18:26.125Z,90.80
2018-12-14T22:20:55.241Z,93.87
2018-12-14T22:23:24.366Z,92.67
2018-12-14T22:25:53.471Z,91.33
2018-12-14T22:28:22.566Z,95.17
2018-12-14T22:30:51.717Z,91.13
2018-12-14T22:33:20.824Z,106.87
2018-12-14T22:35:49.980Z,99.73
2018-12-14T22:38:19.481Z,92.73
2018-12-14T22:40:48.593Z,100.10
2018-12-14T22:43:17.694Z,96.03
2018-12-14T22:45:46.802Z,99.53
2018-12-14T22:48:15.890Z,87.10
2018-12-14T22:50:45.013Z,84.10
2018-12-14T22:53:14.127Z,91.63
2018-12-14T22:55:43.257Z,92.40
2018-12-14T22:58:12.341Z,90.53
2018-12-14T23:00:46.567Z,101.77
2018-12-14T23:03:15.670Z,82.53
2018-12-14T23:05:44.813Z,85.57
2018-12-14T23:08:13.939Z,85.07
2018-12-14T23:10:43.041Z,89.20
2018-12-14T23:13:12.129Z,80.97
2018-12-14T23:15:41.280Z,88.40
2018-12-14T23:18:10.370Z,76.23
2018-12-14T23:20:39.489Z,84.13
2018-12-14T23:23:08.593Z,83.33
2018-12-14T23:25:37.776Z,81.73
2018-12-14T23:28:06.854Z,83.37
2018-12-14T23:30:35.971Z,78.43
2018-12-14T23:33:05.067Z,88.40
2018-12-14T23:35:34.186Z,118.47
2018-12-14T23:38:03.311Z,92.80
2018-12-14T23:40:32.463Z,87.63
2018-12-14T23:43:01.554Z,93.03
2018-12-14T23:45:30.659Z,90.60
2018-12-14T23:47:59.748Z,113.70
2018-12-14T23:50:28.865Z,101.53
2018-12-14T23:52:57.988Z,95.77
2018-12-14T23:55:27.107Z,93.00
2018-12-14T23:57:56.229Z,105.10
